AirNav   Free Bose Alto or Rondo audio sunglasses
 
 952 users online  

7M6 Paris Municipal Airport
Paris (Subiaco), Arkansas, USA

GOING TO PARIS (SUBIACO)?


FAA INFORMATION EFFECTIVE 05 NOVEMBER 2020

Location

FAA Identifier: 7M6
Lat/Long: 35-17-56.8150N 093-40-53.8100W
35-17.946917N 093-40.896833W
35.2991153,-93.6816139
(estimated)
Elevation: 430 ft. / 131 m (estimated)
Variation: 05E (1985)
From city: 2 miles E of central business district of the associated city
Time zone: UTC -6 (UTC -5 during Daylight Saving Time)
Zip code: 72855

Airport Operations

Airport use: Open to the public
Control tower: no
ARTCC: MEMPHIS CENTER
FSS: JONESBORO FLIGHT SERVICE STATION
NOTAMs facility: JBR (NOTAM-D service available)
Attendance: UNATNDD
Wind indicator: lighted
Segmented circle: no
Lights: ACTVT MIRL RWY 03/21 - CTAF
Beacon: white-green (lighted land airport)
BCN IS ON FM SS TO 2100 AND FM 0600 TO SR. OTR TIMES, ACTVT BCN USING CTAF BTN 2100 - 0600.

Airport Communications

CTAF: 122.9

Nearby radio navigation aids

VOR radial/distance  VOR name  Freq  Var
FSMr094/29.4FORT SMITH VORTAC110.4007E

 
NDB name  Hdg/Dist  Freq  Var  ID
RUSSELLVILLE272/28.937903ERUE .-. ..- .

Airport Services

Fuel available: 100LL
SELF SVC FUEL AVBL 24 HRS WITH CREDIT CARD.
Parking: hangars and tiedowns
Airframe service: MAJOR
Powerplant service: MAJOR
Bottled oxygen: NONE
Bulk oxygen: NONE

Runway Information

Runway 3/21

Dimensions: 2710 x 60 ft. / 826 x 18 m
Surface: asphalt, in fair condition
Weight bearing capacity: 
Single wheel: 10.0
Runway edge lights: medium intensity
RUNWAY 3  RUNWAY 21
Latitude: 35-17.773117N35-18.120717N
Longitude: 093-41.067967W093-40.725683W
Elevation: 422.0 ft.403.0 ft.
Traffic pattern: leftleft
Runway heading: 034 magnetic, 039 true214 magnetic, 219 true
Markings: basic, in fair conditionbasic, in fair condition
Visual slope indicator: 2-light PAPI on left (3.00 degrees glide path)
Obstructions: 15 ft. road, 450 ft. from runway, 16:1 slope to clear23 ft. tree, 300 ft. from runway, 140 ft. left of centerline, 4:1 slope to clear

Airport Ownership and Management from official FAA records

Ownership: Publicly-owned
Owner: CITY OF PARIS
PO BOX 271
PARIS, AR 72855
Phone 479-963-2450
Manager: JOHN MINDEN
P.O. BOX 654
PARIS, AR 72855
Phone 479-963-1777
CHAIRMAN AIRPORT COMMISSION.

Airport Operational Statistics

Aircraft based on the field: 5
Single engine airplanes: 4
Helicopters: 1
    
Aircraft operations: avg 63/week *
91% local general aviation
9% transient general aviation
* for 12-month period ending 31 July 2018

Additional Remarks

NUMEROUS AGRICULTURAL OPERATIONS FEB-OCT BLO 500 FT AGL.
FOR CD CTC MEMPHIS ARTCC AT 901-368-8453.

Instrument Procedures

There are no published instrument procedures at 7M6.

Some nearby airports with instrument procedures:

7M5 - Ozark-Franklin County Airport (15 nm NW)
H35 - Clarksville Municipal Airport (16 nm NE)
32A - Danville Municipal Airport (18 nm SE)
KRUE - Russellville Regional Airport (29 nm E)
KFSM - Fort Smith Regional Airport (34 nm W)
 
Loc | Ops | Rwys | IFR | FBO | Links
Com | Nav | Svcs | Stats | Notes
Area around 7M6 (Paris Municipal Airport)
 
Road maps at: MapQuest Bing Google
 
Aerial photo
WARNING: Photo may not be current or correct
Aerial photo of 7M6 (Paris Municipal Airport)
Photo courtesy of the Arkansas Department of Aeronautics
Taken in the Spring of 2007

Do you have a better or more recent aerial photo of Paris Municipal Airport that you would like to share? If so, please send us your photo.

 
Sectional chart

 
Airport distance calculator
Flying to Paris Municipal Airport? Find the distance to fly.

From to 7M6

Sunrise and sunset
Times for 29-Nov-2020
 Local
(UTC-6)
 Zulu
(UTC)
Morning civil twilight06:3712:37
Sunrise07:0513:05
Sunset17:0223:02
Evening civil twilight17:2923:29

Current date and time
Zulu (UTC)  30-Nov-2020 00:25:50
Local (UTC-6)  29-Nov-2020 18:25:50
 
METAR
KRUE 
29nm E 
292353Z AUTO 30009KT 10SM FEW070 OVC095 08/06 A3003 RMK AO2 SLP166 60001 T00830056 10089 20067 50004
KFSM 
34nm W 
292353Z 28007KT 10SM OVC040 09/05 A3010 RMK AO2 RAB2259E12 SLP195 P0000 60000 T00890050 10094 20072 53014
KMWT 
45nm S 
292353Z AUTO 32004KT 10SM BKN040 BKN120 07/05 A3003 RMK AO2 SLP174 60001 T00720050 10078 20061 51008
KRKR 
49nm W 
292355Z AUTO 31006KT 10SM BKN037 OVC043 09/03 A3012 RMK AO2
KFYV 
49nm NW 
292353Z 34010G21KT 10SM FEW029 OVC035 07/02 A3010 RMK AO2 SLP196 60002 T00720022 10078 20067 53019
TAF
KFSM 
34nm W 
291722Z 2918/3018 28006KT P6SM VCSH SCT015 OVC050 FM292300 32010KT P6SM BKN035 FM300300 34012G22KT P6SM SKC
NOTAMs
Click for the latest NOTAMs
NOTAMs are issued by the DoD/FAA and will open in a separate window not controlled by AirNav.

 

 
 

FBO, Fuel Providers, and Aircraft Ground Support

  
 Business Name 
 
 Contact 
 
 Services / Description 
 
Fuel Prices
 
Comments
  
Paris Municipal Airport 479-963-2450
no information available

If you are affiliated with Paris Municipal Airport and would like to show here your services, contact info, web link, logo, and more, click here
100LL
SS $4.15 
 Updated 20-Aug-2018
 
   write
SS=Self service
Update Fuel Prices
 

Would you like to see your business listed on this page?

 If your business provides an interesting product or service to pilots, flight crews, aircraft, or users of the Paris Municipal Airport, you should consider listing it here.  To start the listing process, click on the button below
 
Add a business
 

Other Pages about Paris Municipal Airport

Update a link
 
Copyright © AirNav, LLC. All rights reserved. Privacy Policy  Contact